Terminal Aerodrome Forecast
Issued by NWS

Home | Current Version | Previous Version | Text Only | Print | Product List | Glossary On
Versions: 1 2 3 4 5 6 7 8 9 10 11 12 13 14 15 16 17 18 19 20 21 22 23 24 25 26 27
000
FTUS44 KLIX 162300
TAFHUM
TAF
KHUM 162340Z 1700/1724 21004KT 4SM -SHRA FEW022 BKN080
     FM170200 00000KT P6SM SCT110
     FM171400 VRB03KT P6SM SCT025 BKN070
     FM171800 24005KT P6SM SCT035 BKN100 PROB30 1718/1724 VRB15KT
      2SM TSRA BR BKN030CB=

USA.gov is the U.S. government's official web portal to all federal, state and local government web resources and services.